sensor_id;sensor_type;location;lat;lon;timestamp;pressure;altitude;pressure_sealevel;temperature;humidity
72465;BME280;60471;52.150;4.508;2023-07-02T00:02:14;100470.03;;;19.44;52.87
72465;BME280;60471;52.150;4.508;2023-07-02T00:04:42;100468.03;;;19.26;51.42
72465;BME280;60471;52.150;4.508;2023-07-02T00:07:11;100470.88;;;19.34;50.93
72465;BME280;60471;52.150;4.508;2023-07-02T00:09:37;100465.78;;;19.31;50.53
72465;BME280;60471;52.150;4.508;2023-07-02T00:12:04;100454.81;;;19.25;49.65
72465;BME280;60471;52.150;4.508;2023-07-02T00:14:30;100461.97;;;19.24;49.01
72465;BME280;60471;52.150;4.508;2023-07-02T00:16:56;100462.28;;;19.21;48.87
72465;BME280;60471;52.150;4.508;2023-07-02T00:19:23;100463.94;;;19.13;49.60
72465;BME280;60471;52.150;4.508;2023-07-02T00:21:49;100470.56;;;19.28;49.71
72465;BME280;60471;52.150;4.508;2023-07-02T00:24:16;100473.38;;;19.26;50.04
72465;BME280;60471;52.150;4.508;2023-07-02T00:26:42;100461.28;;;19.22;50.82
72465;BME280;60471;52.150;4.508;2023-07-02T00:29:08;100462.81;;;19.25;51.28
72465;BME280;60471;52.150;4.508;2023-07-02T00:31:35;100462.53;;;19.28;52.04
72465;BME280;60471;52.150;4.508;2023-07-02T00:34:01;100464.81;;;19.23;53.08
72465;BME280;60471;52.150;4.508;2023-07-02T00:36:29;100468.72;;;19.28;54.09
72465;BME280;60471;52.150;4.508;2023-07-02T00:38:56;100468.00;;;19.17;54.56
72465;BME280;60471;52.150;4.508;2023-07-02T00:41:23;100469.69;;;19.18;53.86
72465;BME280;60471;52.150;4.508;2023-07-02T00:43:50;100476.47;;;19.12;54.36
72465;BME280;60471;52.150;4.508;2023-07-02T00:46:21;100465.59;;;19.04;53.27
72465;BME280;60471;52.150;4.508;2023-07-02T00:48:52;100466.59;;;19.03;52.26
72465;BME280;60471;52.150;4.508;2023-07-02T00:51:24;100467.16;;;19.16;52.01
72465;BME280;60471;52.150;4.508;2023-07-02T00:53:54;100477.59;;;19.19;51.65
72465;BME280;60471;52.150;4.508;2023-07-02T00:56:23;100477.84;;;18.66;53.45
72465;BME280;60471;52.150;4.508;2023-07-02T00:58:51;100476.81;;;18.58;54.06
72465;BME280;60471;52.150;4.508;2023-07-02T01:01:23;100477.38;;;18.61;53.91
72465;BME280;60471;52.150;4.508;2023-07-02T01:04:01;100476.94;;;18.56;54.32
72465;BME280;60471;52.150;4.508;2023-07-02T01:06:31;100473.84;;;18.61;53.39
72465;BME280;60471;52.150;4.508;2023-07-02T01:09:03;100479.00;;;18.52;53.55
72465;BME280;60471;52.150;4.508;2023-07-02T01:11:34;100475.34;;;18.53;52.68
72465;BME280;60471;52.150;4.508;2023-07-02T01:14:09;100480.25;;;18.48;52.04
72465;BME280;60471;52.150;4.508;2023-07-02T01:16:41;100477.50;;;18.60;50.25
72465;BME280;60471;52.150;4.508;2023-07-02T01:22:01;100484.34;;;18.52;50.46
72465;BME280;60471;52.150;4.508;2023-07-02T01:24:28;100476.78;;;18.27;51.22
72465;BME280;60471;52.150;4.508;2023-07-02T01:26:54;100488.25;;;18.18;51.88
72465;BME280;60471;52.150;4.508;2023-07-02T01:29:22;100482.31;;;18.35;51.56
72465;BME280;60471;52.150;4.508;2023-07-02T01:31:48;100473.13;;;18.28;51.89
72465;BME280;60471;52.150;4.508;2023-07-02T01:34:14;100475.25;;;18.34;52.10
72465;BME280;60471;52.150;4.508;2023-07-02T01:36:41;100478.06;;;18.33;52.02
72465;BME280;60471;52.150;4.508;2023-07-02T01:39:07;100476.38;;;18.32;52.14
72465;BME280;60471;52.150;4.508;2023-07-02T01:41:44;100486.22;;;18.10;52.77
72465;BME280;60471;52.150;4.508;2023-07-02T01:44:21;100477.69;;;18.16;53.53
72465;BME280;60471;52.150;4.508;2023-07-02T01:46:48;100471.31;;;18.08;53.84
72465;BME280;60471;52.150;4.508;2023-07-02T01:49:18;100479.44;;;18.06;53.53
72465;BME280;60471;52.150;4.508;2023-07-02T01:51:49;100483.59;;;17.99;54.10
72465;BME280;60471;52.150;4.508;2023-07-02T01:54:17;100471.22;;;18.19;53.30
72465;BME280;60471;52.150;4.508;2023-07-02T01:56:44;100467.44;;;18.21;53.54
72465;BME280;60471;52.150;4.508;2023-07-02T01:59:11;100462.03;;;18.12;53.83
72465;BME280;60471;52.150;4.508;2023-07-02T02:01:39;100487.06;;;18.11;53.45
72465;BME280;60471;52.150;4.508;2023-07-02T02:04:09;100480.22;;;18.18;53.32
72465;BME280;60471;52.150;4.508;2023-07-02T02:06:37;100483.31;;;18.13;53.90
72465;BME280;60471;52.150;4.508;2023-07-02T02:09:05;100483.88;;;18.17;54.21
72465;BME280;60471;52.150;4.508;2023-07-02T02:11:33;100475.88;;;18.17;54.47
72465;BME280;60471;52.150;4.508;2023-07-02T02:14:00;100482.06;;;18.17;54.40
72465;BME280;60471;52.150;4.508;2023-07-02T02:16:29;100487.47;;;18.06;54.74
72465;BME280;60471;52.150;4.508;2023-07-02T02:18:56;100478.94;;;17.91;55.05
72465;BME280;60471;52.150;4.508;2023-07-02T02:21:22;100482.69;;;17.89;54.98
72465;BME280;60471;52.150;4.508;2023-07-02T02:23:48;100495.75;;;18.03;53.84
72465;BME280;60471;52.150;4.508;2023-07-02T02:26:15;100495.78;;;17.92;53.82
72465;BME280;60471;52.150;4.508;2023-07-02T02:28:42;100508.34;;;18.01;52.90
72465;BME280;60471;52.150;4.508;2023-07-02T02:31:08;100496.94;;;17.78;53.41
72465;BME280;60471;52.150;4.508;2023-07-02T02:33:35;100506.84;;;17.87;53.26
72465;BME280;60471;52.150;4.508;2023-07-02T02:36:02;100502.56;;;17.96;53.19
72465;BME280;60471;52.150;4.508;2023-07-02T02:38:28;100504.38;;;17.95;53.19
72465;BME280;60471;52.150;4.508;2023-07-02T02:40:54;100510.25;;;18.10;52.57
72465;BME280;60471;52.150;4.508;2023-07-02T02:43:20;100507.91;;;17.96;51.88
72465;BME280;60471;52.150;4.508;2023-07-02T02:45:48;100519.88;;;17.81;52.62
72465;BME280;60471;52.150;4.508;2023-07-02T02:48:14;100522.41;;;17.82;53.54
72465;BME280;60471;52.150;4.508;2023-07-02T02:50:40;100522.16;;;17.85;54.12
72465;BME280;60471;52.150;4.508;2023-07-02T02:53:10;100517.84;;;17.62;55.14
72465;BME280;60471;52.150;4.508;2023-07-02T02:55:37;100519.13;;;17.67;55.83
72465;BME280;60471;52.150;4.508;2023-07-02T02:58:03;100532.88;;;17.63;56.01
72465;BME280;60471;52.150;4.508;2023-07-02T03:00:30;100541.00;;;17.61;56.25
72465;BME280;60471;52.150;4.508;2023-07-02T03:02:56;100522.50;;;17.49;56.66
72465;BME280;60471;52.150;4.508;2023-07-02T03:05:22;100515.91;;;17.53;56.63
72465;BME280;60471;52.150;4.508;2023-07-02T03:07:50;100525.16;;;17.49;56.97
72465;BME280;60471;52.150;4.508;2023-07-02T03:10:17;100518.41;;;17.22;57.08
72465;BME280;60471;52.150;4.508;2023-07-02T03:12:43;100523.56;;;17.46;56.79
72465;BME280;60471;52.150;4.508;2023-07-02T03:15:09;100529.41;;;17.40;56.99
72465;BME280;60471;52.150;4.508;2023-07-02T03:17:36;100522.88;;;17.33;57.07
72465;BME280;60471;52.150;4.508;2023-07-02T03:20:03;100528.34;;;17.31;57.11
72465;BME280;60471;52.150;4.508;2023-07-02T03:22:35;100519.22;;;17.34;57.35
72465;BME280;60471;52.150;4.508;2023-07-02T03:25:01;100526.50;;;17.32;57.58
72465;BME280;60471;52.150;4.508;2023-07-02T03:27:28;100521.44;;;17.29;57.85
72465;BME280;60471;52.150;4.508;2023-07-02T03:29:54;100518.91;;;17.27;57.70
72465;BME280;60471;52.150;4.508;2023-07-02T03:32:20;100519.75;;;17.28;57.69
72465;BME280;60471;52.150;4.508;2023-07-02T03:34:46;100519.03;;;17.26;57.71
72465;BME280;60471;52.150;4.508;2023-07-02T03:37:13;100522.28;;;17.29;57.67
72465;BME280;60471;52.150;4.508;2023-07-02T03:39:39;100521.47;;;17.18;58.07
72465;BME280;60471;52.150;4.508;2023-07-02T03:42:05;100526.91;;;17.16;57.96
72465;BME280;60471;52.150;4.508;2023-07-02T03:44:31;100541.09;;;17.28;57.68
72465;BME280;60471;52.150;4.508;2023-07-02T03:46:58;100548.47;;;17.13;58.16
72465;BME280;60471;52.150;4.508;2023-07-02T03:49:24;100542.66;;;17.19;57.85
72465;BME280;60471;52.150;4.508;2023-07-02T03:51:50;100546.53;;;17.26;57.99
72465;BME280;60471;52.150;4.508;2023-07-02T03:54:16;100537.59;;;16.94;59.27
72465;BME280;60471;52.150;4.508;2023-07-02T03:56:43;100546.91;;;16.99;59.51
72465;BME280;60471;52.150;4.508;2023-07-02T03:59:10;100544.25;;;17.10;59.18
72465;BME280;60471;52.150;4.508;2023-07-02T04:01:36;100551.16;;;17.02;59.25
72465;BME280;60471;52.150;4.508;2023-07-02T04:04:02;100570.06;;;16.99;59.20
72465;BME280;60471;52.150;4.508;2023-07-02T04:06:29;100563.16;;;16.96;58.36
72465;BME280;60471;52.150;4.508;2023-07-02T04:08:55;100559.78;;;17.05;58.36
72465;BME280;60471;52.150;4.508;2023-07-02T04:11:21;100565.44;;;17.01;58.82
72465;BME280;60471;52.150;4.508;2023-07-02T04:13:47;100562.78;;;17.12;58.49
72465;BME280;60471;52.150;4.508;2023-07-02T04:16:13;100566.06;;;17.16;58.85
72465;BME280;60471;52.150;4.508;2023-07-02T04:18:40;100560.22;;;17.10;57.76
72465;BME280;60471;52.150;4.508;2023-07-02T04:21:06;100572.00;;;17.19;57.38
72465;BME280;60471;52.150;4.508;2023-07-02T04:23:32;100577.91;;;17.23;57.59
72465;BME280;60471;52.150;4.508;2023-07-02T04:25:58;100580.47;;;17.02;58.55
72465;BME280;60471;52.150;4.508;2023-07-02T04:28:24;100571.63;;;17.13;57.37
72465;BME280;60471;52.150;4.508;2023-07-02T04:30:51;100579.88;;;17.09;56.86
72465;BME280;60471;52.150;4.508;2023-07-02T04:33:19;100574.91;;;17.27;55.95
72465;BME280;60471;52.150;4.508;2023-07-02T04:35:45;100558.38;;;17.33;55.59
72465;BME280;60471;52.150;4.508;2023-07-02T04:38:11;100584.47;;;17.41;55.69
72465;BME280;60471;52.150;4.508;2023-07-02T04:40:38;100578.59;;;17.47;55.67
72465;BME280;60471;52.150;4.508;2023-07-02T04:43:04;100585.31;;;17.42;56.04
72465;BME280;60471;52.150;4.508;2023-07-02T04:45:31;100587.00;;;17.31;56.78
72465;BME280;60471;52.150;4.508;2023-07-02T04:48:05;100581.28;;;17.47;56.87
72465;BME280;60471;52.150;4.508;2023-07-02T04:50:32;100585.91;;;17.23;57.49
72465;BME280;60471;52.150;4.508;2023-07-02T04:52:58;100589.22;;;17.15;58.39
72465;BME280;60471;52.150;4.508;2023-07-02T04:55:25;100579.25;;;17.28;58.54
72465;BME280;60471;52.150;4.508;2023-07-02T04:57:51;100594.03;;;17.44;58.29
72465;BME280;60471;52.150;4.508;2023-07-02T05:00:17;100602.28;;;17.41;58.72
72465;BME280;60471;52.150;4.508;2023-07-02T05:02:44;100593.19;;;17.32;59.44
72465;BME280;60471;52.150;4.508;2023-07-02T05:05:10;100601.19;;;17.21;60.11
72465;BME280;60471;52.150;4.508;2023-07-02T05:07:36;100598.16;;;17.36;59.78
72465;BME280;60471;52.150;4.508;2023-07-02T05:10:03;100599.38;;;17.21;60.23
72465;BME280;60471;52.150;4.508;2023-07-02T05:12:30;100591.75;;;17.28;59.96
72465;BME280;60471;52.150;4.508;2023-07-02T05:14:56;100588.56;;;17.45;59.52
72465;BME280;60471;52.150;4.508;2023-07-02T05:17:22;100601.75;;;17.58;59.16
72465;BME280;60471;52.150;4.508;2023-07-02T05:19:49;100614.25;;;17.46;59.29
72465;BME280;60471;52.150;4.508;2023-07-02T05:22:15;100603.94;;;17.64;58.17
72465;BME280;60471;52.150;4.508;2023-07-02T05:24:41;100617.44;;;17.51;58.38
72465;BME280;60471;52.150;4.508;2023-07-02T05:27:07;100609.78;;;17.47;58.85
72465;BME280;60471;52.150;4.508;2023-07-02T05:29:34;100613.56;;;17.33;59.59
72465;BME280;60471;52.150;4.508;2023-07-02T05:32:00;100615.13;;;17.35;59.62
72465;BME280;60471;52.150;4.508;2023-07-02T05:34:26;100617.78;;;17.35;59.24
72465;BME280;60471;52.150;4.508;2023-07-02T05:36:52;100651.50;;;17.25;58.93
72465;BME280;60471;52.150;4.508;2023-07-02T05:39:19;100635.88;;;17.32;59.17
72465;BME280;60471;52.150;4.508;2023-07-02T05:41:45;100634.88;;;17.33;59.13
72465;BME280;60471;52.150;4.508;2023-07-02T05:44:11;100636.72;;;17.32;59.42
72465;BME280;60471;52.150;4.508;2023-07-02T05:46:37;100644.56;;;17.45;59.88
72465;BME280;60471;52.150;4.508;2023-07-02T05:49:04;100650.75;;;17.23;60.03
72465;BME280;60471;52.150;4.508;2023-07-02T05:51:31;100643.25;;;17.39;59.24
72465;BME280;60471;52.150;4.508;2023-07-02T05:53:58;100662.53;;;17.43;59.29
72465;BME280;60471;52.150;4.508;2023-07-02T05:56:24;100646.16;;;17.59;58.75
72465;BME280;60471;52.150;4.508;2023-07-02T05:58:50;100657.06;;;17.56;59.44
72465;BME280;60471;52.150;4.508;2023-07-02T06:01:16;100664.94;;;17.46;58.45
72465;BME280;60471;52.150;4.508;2023-07-02T06:03:43;100646.91;;;17.50;58.80
72465;BME280;60471;52.150;4.508;2023-07-02T06:06:11;100653.69;;;17.31;58.96
72465;BME280;60471;52.150;4.508;2023-07-02T06:08:37;100661.94;;;17.73;58.12
72465;BME280;60471;52.150;4.508;2023-07-02T06:11:04;100649.34;;;18.07;56.54
72465;BME280;60471;52.150;4.508;2023-07-02T06:13:30;100659.84;;;17.88;57.28
72465;BME280;60471;52.150;4.508;2023-07-02T06:15:56;100650.38;;;17.95;56.25
72465;BME280;60471;52.150;4.508;2023-07-02T06:18:23;100650.78;;;18.11;56.46
72465;BME280;60471;52.150;4.508;2023-07-02T06:20:50;100663.50;;;17.76;56.66
72465;BME280;60471;52.150;4.508;2023-07-02T06:23:16;100673.31;;;17.64;57.26
72465;BME280;60471;52.150;4.508;2023-07-02T06:25:42;100667.00;;;17.65;57.10
72465;BME280;60471;52.150;4.508;2023-07-02T06:28:09;100662.91;;;17.38;57.52
72465;BME280;60471;52.150;4.508;2023-07-02T06:30:36;100672.09;;;17.57;57.13
72465;BME280;60471;52.150;4.508;2023-07-02T06:33:02;100675.72;;;17.67;57.01
72465;BME280;60471;52.150;4.508;2023-07-02T06:35:28;100670.41;;;17.56;58.05
72465;BME280;60471;52.150;4.508;2023-07-02T06:37:54;100680.59;;;17.84;57.43
72465;BME280;60471;52.150;4.508;2023-07-02T06:40:21;100693.06;;;18.06;56.48
72465;BME280;60471;52.150;4.508;2023-07-02T06:42:48;100683.03;;;17.76;57.57
72465;BME280;60471;52.150;4.508;2023-07-02T06:45:14;100697.00;;;17.91;57.05
72465;BME280;60471;52.150;4.508;2023-07-02T06:47:41;100693.09;;;17.95;57.54
72465;BME280;60471;52.150;4.508;2023-07-02T06:50:07;100682.63;;;18.03;57.31
72465;BME280;60471;52.150;4.508;2023-07-02T06:52:33;100678.31;;;17.91;57.75
72465;BME280;60471;52.150;4.508;2023-07-02T06:55:00;100690.09;;;18.20;56.70
72465;BME280;60471;52.150;4.508;2023-07-02T06:57:26;100685.25;;;18.25;55.55
72465;BME280;60471;52.150;4.508;2023-07-02T06:59:52;100692.16;;;18.28;55.77
72465;BME280;60471;52.150;4.508;2023-07-02T07:02:25;100690.84;;;18.11;56.34
72465;BME280;60471;52.150;4.508;2023-07-02T07:04:51;100717.56;;;17.66;56.46
72465;BME280;60471;52.150;4.508;2023-07-02T07:07:17;100719.31;;;17.79;55.73
72465;BME280;60471;52.150;4.508;2023-07-02T07:09:44;100706.41;;;18.06;54.74
72465;BME280;60471;52.150;4.508;2023-07-02T07:12:10;100703.53;;;17.87;55.33
72465;BME280;60471;52.150;4.508;2023-07-02T07:14:37;100713.25;;;18.31;55.05
72465;BME280;60471;52.150;4.508;2023-07-02T07:17:03;100713.19;;;18.53;53.89
72465;BME280;60471;52.150;4.508;2023-07-02T07:19:29;100727.56;;;17.87;54.15
72465;BME280;60471;52.150;4.508;2023-07-02T07:21:55;100749.34;;;18.25;53.83
72465;BME280;60471;52.150;4.508;2023-07-02T07:24:22;100749.03;;;17.96;55.43
72465;BME280;60471;52.150;4.508;2023-07-02T07:26:48;100785.19;;;18.01;54.75
72465;BME280;60471;52.150;4.508;2023-07-02T07:29:14;100736.38;;;18.10;55.48
72465;BME280;60471;52.150;4.508;2023-07-02T07:31:40;100735.03;;;18.27;55.28
72465;BME280;60471;52.150;4.508;2023-07-02T07:34:07;100728.34;;;18.64;54.25
72465;BME280;60471;52.150;4.508;2023-07-02T07:36:33;100747.06;;;18.64;53.46
72465;BME280;60471;52.150;4.508;2023-07-02T07:38:59;100740.47;;;18.36;54.24
72465;BME280;60471;52.150;4.508;2023-07-02T07:41:26;100739.72;;;18.34;54.34
72465;BME280;60471;52.150;4.508;2023-07-02T07:43:52;100749.75;;;17.99;55.47
72465;BME280;60471;52.150;4.508;2023-07-02T07:46:18;100726.84;;;18.39;54.08
72465;BME280;60471;52.150;4.508;2023-07-02T07:48:45;100777.66;;;18.17;54.60
72465;BME280;60471;52.150;4.508;2023-07-02T07:51:11;100753.09;;;18.23;53.27
72465;BME280;60471;52.150;4.508;2023-07-02T07:53:38;100773.88;;;18.08;53.08
72465;BME280;60471;52.150;4.508;2023-07-02T07:56:07;100752.78;;;17.94;53.28
72465;BME280;60471;52.150;4.508;2023-07-02T07:58:33;100749.00;;;18.08;53.95
72465;BME280;60471;52.150;4.508;2023-07-02T08:01:00;100765.28;;;17.93;54.99
72465;BME280;60471;52.150;4.508;2023-07-02T08:03:26;100748.28;;;18.17;54.53
72465;BME280;60471;52.150;4.508;2023-07-02T08:05:52;100764.31;;;18.06;52.97
72465;BME280;60471;52.150;4.508;2023-07-02T08:08:18;100768.41;;;18.10;53.05
72465;BME280;60471;52.150;4.508;2023-07-02T08:10:45;100756.97;;;18.30;52.73
72465;BME280;60471;52.150;4.508;2023-07-02T08:13:12;100749.50;;;18.45;52.49
72465;BME280;60471;52.150;4.508;2023-07-02T08:15:38;100738.69;;;18.58;52.32
72465;BME280;60471;52.150;4.508;2023-07-02T08:18:05;100760.66;;;18.61;53.35
72465;BME280;60471;52.150;4.508;2023-07-02T08:20:33;100763.06;;;18.75;53.56
72465;BME280;60471;52.150;4.508;2023-07-02T08:22:59;100756.56;;;18.57;53.87
72465;BME280;60471;52.150;4.508;2023-07-02T08:25:25;100757.53;;;18.56;53.35
72465;BME280;60471;52.150;4.508;2023-07-02T08:27:52;100781.91;;;18.63;54.03
72465;BME280;60471;52.150;4.508;2023-07-02T08:30:19;100761.19;;;18.87;53.94
72465;BME280;60471;52.150;4.508;2023-07-02T08:32:46;100778.19;;;18.86;52.39
72465;BME280;60471;52.150;4.508;2023-07-02T08:35:12;100794.41;;;18.62;54.04
72465;BME280;60471;52.150;4.508;2023-07-02T08:37:38;100812.69;;;18.46;54.05
72465;BME280;60471;52.150;4.508;2023-07-02T08:40:05;100778.97;;;18.22;55.23
72465;BME280;60471;52.150;4.508;2023-07-02T08:42:33;100776.88;;;18.37;56.17
72465;BME280;60471;52.150;4.508;2023-07-02T08:45:00;100785.41;;;18.20;54.30
72465;BME280;60471;52.150;4.508;2023-07-02T08:47:27;100791.50;;;18.00;55.00
72465;BME280;60471;52.150;4.508;2023-07-02T08:49:53;100784.09;;;18.03;54.98
72465;BME280;60471;52.150;4.508;2023-07-02T08:52:19;100772.66;;;18.23;54.45
72465;BME280;60471;52.150;4.508;2023-07-02T08:54:45;100814.91;;;18.18;55.22
72465;BME280;60471;52.150;4.508;2023-07-02T08:57:12;100801.19;;;18.12;55.45
72465;BME280;60471;52.150;4.508;2023-07-02T08:59:38;100787.66;;;18.47;54.81
72465;BME280;60471;52.150;4.508;2023-07-02T09:02:04;100792.22;;;18.78;53.77
72465;BME280;60471;52.150;4.508;2023-07-02T09:04:31;100830.03;;;18.51;54.07
72465;BME280;60471;52.150;4.508;2023-07-02T09:07:10;100798.50;;;18.12;53.99
72465;BME280;60471;52.150;4.508;2023-07-02T09:09:47;100809.28;;;18.44;55.99
72465;BME280;60471;52.150;4.508;2023-07-02T09:12:42;100798.56;;;18.55;54.70
72465;BME280;60471;52.150;4.508;2023-07-02T09:15:08;100812.34;;;18.28;55.98
72465;BME280;60471;52.150;4.508;2023-07-02T09:17:36;100788.75;;;18.44;54.52
72465;BME280;60471;52.150;4.508;2023-07-02T09:20:06;100805.28;;;18.38;55.89
72465;BME280;60471;52.150;4.508;2023-07-02T09:22:35;100796.38;;;18.60;56.55
72465;BME280;60471;52.150;4.508;2023-07-02T09:25:02;100805.56;;;18.90;55.35
72465;BME280;60471;52.150;4.508;2023-07-02T09:27:39;100801.31;;;19.08;54.87
72465;BME280;60471;52.150;4.508;2023-07-02T09:30:12;100810.72;;;19.55;51.89
72465;BME280;60471;52.150;4.508;2023-07-02T09:32:40;100804.78;;;19.40;52.26
72465;BME280;60471;52.150;4.508;2023-07-02T09:35:06;100804.13;;;19.48;51.60
72465;BME280;60471;52.150;4.508;2023-07-02T09:37:33;100809.22;;;19.30;53.08
72465;BME280;60471;52.150;4.508;2023-07-02T09:40:00;100808.88;;;19.56;50.91
72465;BME280;60471;52.150;4.508;2023-07-02T09:42:28;100800.44;;;19.60;51.07
72465;BME280;60471;52.150;4.508;2023-07-02T09:44:55;100801.66;;;19.35;51.52
72465;BME280;60471;52.150;4.508;2023-07-02T09:47:26;100825.41;;;19.29;51.89
72465;BME280;60471;52.150;4.508;2023-07-02T09:50:01;100810.09;;;18.78;52.54
72465;BME280;60471;52.150;4.508;2023-07-02T09:52:33;100797.72;;;18.98;52.10
72465;BME280;60471;52.150;4.508;2023-07-02T09:55:01;100798.78;;;19.06;51.28
72465;BME280;60471;52.150;4.508;2023-07-02T09:57:27;100807.34;;;19.00;51.79
72465;BME280;60471;52.150;4.508;2023-07-02T09:59:59;100791.00;;;19.03;51.94
72465;BME280;60471;52.150;4.508;2023-07-02T10:02:26;100815.41;;;19.10;51.80
72465;BME280;60471;52.150;4.508;2023-07-02T10:04:53;100800.34;;;19.09;51.69
72465;BME280;60471;52.150;4.508;2023-07-02T10:07:28;100801.06;;;19.11;51.48
72465;BME280;60471;52.150;4.508;2023-07-02T10:09:55;100812.44;;;19.24;50.80
72465;BME280;60471;52.150;4.508;2023-07-02T10:12:23;100815.19;;;19.34;50.41
72465;BME280;60471;52.150;4.508;2023-07-02T10:14:53;100817.84;;;19.34;50.52
72465;BME280;60471;52.150;4.508;2023-07-02T10:17:30;100822.53;;;19.21;48.79
72465;BME280;60471;52.150;4.508;2023-07-02T10:20:00;100813.97;;;19.59;48.82
72465;BME280;60471;52.150;4.508;2023-07-02T10:22:50;100811.72;;;20.25;47.59
72465;BME280;60471;52.150;4.508;2023-07-02T10:25:36;100822.91;;;19.69;48.75
72465;BME280;60471;52.150;4.508;2023-07-02T10:28:18;100835.06;;;19.83;49.66
72465;BME280;60471;52.150;4.508;2023-07-02T10:30:48;100850.19;;;19.63;48.43
72465;BME280;60471;52.150;4.508;2023-07-02T10:33:17;100842.69;;;19.78;47.41
72465;BME280;60471;52.150;4.508;2023-07-02T10:35:46;100820.56;;;19.85;45.90
72465;BME280;60471;52.150;4.508;2023-07-02T10:38:19;100868.91;;;19.84;46.90
72465;BME280;60471;52.150;4.508;2023-07-02T10:40:47;100832.22;;;20.05;44.25
72465;BME280;60471;52.150;4.508;2023-07-02T10:43:29;100833.81;;;20.17;44.85
72465;BME280;60471;52.150;4.508;2023-07-02T10:45:56;100819.63;;;19.86;41.70
72465;BME280;60471;52.150;4.508;2023-07-02T10:48:25;100840.22;;;19.95;42.26
72465;BME280;60471;52.150;4.508;2023-07-02T10:50:51;100824.34;;;20.44;40.68
72465;BME280;60471;52.150;4.508;2023-07-02T10:53:20;100831.88;;;20.19;41.71
72465;BME280;60471;52.150;4.508;2023-07-02T10:55:53;100825.25;;;20.64;42.33
72465;BME280;60471;52.150;4.508;2023-07-02T10:58:21;100830.06;;;21.57;40.33
72465;BME280;60471;52.150;4.508;2023-07-02T11:00:49;100818.22;;;23.14;37.27
72465;BME280;60471;52.150;4.508;2023-07-02T11:03:23;100848.25;;;23.63;35.97
72465;BME280;60471;52.150;4.508;2023-07-02T11:05:51;100857.41;;;22.81;36.91
72465;BME280;60471;52.150;4.508;2023-07-02T11:08:18;100891.84;;;23.85;35.84
72465;BME280;60471;52.150;4.508;2023-07-02T11:10:49;100850.25;;;25.06;34.93
72465;BME280;60471;52.150;4.508;2023-07-02T11:13:19;100866.63;;;25.86;32.61
72465;BME280;60471;52.150;4.508;2023-07-02T11:15:46;100838.66;;;26.57;32.47
72465;BME280;60471;52.150;4.508;2023-07-02T11:18:14;100847.63;;;26.18;32.60
72465;BME280;60471;52.150;4.508;2023-07-02T11:20:43;100848.03;;;23.57;38.90
72465;BME280;60471;52.150;4.508;2023-07-02T11:23:21;100874.50;;;23.43;40.58
72465;BME280;60471;52.150;4.508;2023-07-02T11:25:59;100841.22;;;24.81;36.90
72465;BME280;60471;52.150;4.508;2023-07-02T11:28:28;100840.88;;;24.68;37.58
72465;BME280;60471;52.150;4.508;2023-07-02T11:30:56;100856.06;;;22.13;41.39
72465;BME280;60471;52.150;4.508;2023-07-02T11:33:36;100835.25;;;24.45;36.39
72465;BME280;60471;52.150;4.508;2023-07-02T11:36:04;100854.31;;;25.26;35.79
72465;BME280;60471;52.150;4.508;2023-07-02T11:38:45;100835.00;;;24.80;36.78
72465;BME280;60471;52.150;4.508;2023-07-02T11:41:11;100832.81;;;25.98;34.00
72465;BME280;60471;52.150;4.508;2023-07-02T11:43:38;100880.44;;;24.43;35.86
72465;BME280;60471;52.150;4.508;2023-07-02T11:46:04;100839.81;;;24.18;38.68
72465;BME280;60471;52.150;4.508;2023-07-02T11:48:31;100861.88;;;25.96;35.20
72465;BME280;60471;52.150;4.508;2023-07-02T11:50:57;100840.19;;;26.12;34.67
72465;BME280;60471;52.150;4.508;2023-07-02T11:53:23;100859.91;;;26.29;34.23
72465;BME280;60471;52.150;4.508;2023-07-02T11:55:50;100843.34;;;25.20;33.70
72465;BME280;60471;52.150;4.508;2023-07-02T11:58:16;100857.50;;;26.42;33.80
72465;BME280;60471;52.150;4.508;2023-07-02T12:00:43;100854.13;;;27.02;31.43
72465;BME280;60471;52.150;4.508;2023-07-02T12:03:10;100833.00;;;26.98;31.11
72465;BME280;60471;52.150;4.508;2023-07-02T12:05:36;100859.38;;;25.62;31.18
72465;BME280;60471;52.150;4.508;2023-07-02T12:08:02;100854.41;;;24.76;34.58
72465;BME280;60471;52.150;4.508;2023-07-02T12:10:29;100864.69;;;24.80;35.68
72465;BME280;60471;52.150;4.508;2023-07-02T12:12:55;100848.19;;;24.07;37.81
72465;BME280;60471;52.150;4.508;2023-07-02T12:15:21;100875.06;;;24.25;35.01
72465;BME280;60471;52.150;4.508;2023-07-02T12:17:47;100862.50;;;24.92;35.33
72465;BME280;60471;52.150;4.508;2023-07-02T12:20:14;100855.25;;;24.93;33.90
72465;BME280;60471;52.150;4.508;2023-07-02T12:22:40;100867.31;;;22.81;38.33
72465;BME280;60471;52.150;4.508;2023-07-02T12:25:06;100861.66;;;24.83;37.07
72465;BME280;60471;52.150;4.508;2023-07-02T12:27:33;100870.91;;;26.27;31.67
72465;BME280;60471;52.150;4.508;2023-07-02T12:29:59;100885.19;;;26.05;31.19
72465;BME280;60471;52.150;4.508;2023-07-02T12:32:25;100876.94;;;25.25;31.82
72465;BME280;60471;52.150;4.508;2023-07-02T12:34:52;100907.78;;;23.34;34.58
72465;BME280;60471;52.150;4.508;2023-07-02T12:37:18;100874.59;;;25.30;32.23
72465;BME280;60471;52.150;4.508;2023-07-02T12:39:46;100878.97;;;25.80;32.89
72465;BME280;60471;52.150;4.508;2023-07-02T12:42:12;100862.81;;;26.19;32.08
72465;BME280;60471;52.150;4.508;2023-07-02T12:44:38;100907.13;;;26.66;30.94
72465;BME280;60471;52.150;4.508;2023-07-02T12:47:05;100866.78;;;26.48;31.34
72465;BME280;60471;52.150;4.508;2023-07-02T12:49:31;100887.75;;;26.46;30.73
72465;BME280;60471;52.150;4.508;2023-07-02T12:51:57;100870.47;;;26.86;31.05
72465;BME280;60471;52.150;4.508;2023-07-02T12:54:23;100886.38;;;27.20;30.71
72465;BME280;60471;52.150;4.508;2023-07-02T12:56:50;100892.22;;;26.14;32.22